sensor_id;sensor_type;location;lat;lon;timestamp;P1;durP1;ratioP1;P2;durP2;ratioP2
70707;SDS011;58277;47.316;18.908;2022-09-09T00:00:34;4.68;;;3.17;;
70707;SDS011;58277;47.316;18.908;2022-09-09T00:03:22;5.78;;;3.33;;
70707;SDS011;58277;47.316;18.908;2022-09-09T00:08:15;5.20;;;3.17;;
70707;SDS011;58277;47.316;18.908;2022-09-09T00:10:42;4.60;;;3.15;;
70707;SDS011;58277;47.316;18.908;2022-09-09T00:23:28;3.95;;;2.50;;
70707;SDS011;58277;47.316;18.908;2022-09-09T00:28:47;3.17;;;2.15;;
70707;SDS011;58277;47.316;18.908;2022-09-09T00:31:18;3.40;;;2.10;;
70707;SDS011;58277;47.316;18.908;2022-09-09T00:33:47;4.13;;;2.40;;
70707;SDS011;58277;47.316;18.908;2022-09-09T00:36:14;4.30;;;2.30;;
70707;SDS011;58277;47.316;18.908;2022-09-09T00:38:48;3.88;;;2.28;;
70707;SDS011;58277;47.316;18.908;2022-09-09T00:41:17;4.90;;;2.60;;
70707;SDS011;58277;47.316;18.908;2022-09-09T00:49:57;4.32;;;2.47;;
70707;SDS011;58277;47.316;18.908;2022-09-09T00:57:42;4.78;;;2.20;;
70707;SDS011;58277;47.316;18.908;2022-09-09T01:11:41;3.53;;;2.60;;
70707;SDS011;58277;47.316;18.908;2022-09-09T01:16:57;4.53;;;2.75;;
70707;SDS011;58277;47.316;18.908;2022-09-09T01:19:35;3.83;;;2.75;;
70707;SDS011;58277;47.316;18.908;2022-09-09T01:28:09;4.20;;;2.60;;
70707;SDS011;58277;47.316;18.908;2022-09-09T01:30:38;5.30;;;2.88;;
70707;SDS011;58277;47.316;18.908;2022-09-09T01:33:07;3.58;;;2.90;;
70707;SDS011;58277;47.316;18.908;2022-09-09T01:35:50;5.00;;;2.90;;
70707;SDS011;58277;47.316;18.908;2022-09-09T01:38:20;3.65;;;2.50;;
70707;SDS011;58277;47.316;18.908;2022-09-09T01:40:45;4.35;;;3.00;;
70707;SDS011;58277;47.316;18.908;2022-09-09T01:43:09;4.90;;;2.88;;
70707;SDS011;58277;47.316;18.908;2022-09-09T01:45:33;6.20;;;2.78;;
70707;SDS011;58277;47.316;18.908;2022-09-09T01:47:56;6.35;;;3.08;;
70707;SDS011;58277;47.316;18.908;2022-09-09T01:50:40;4.22;;;2.90;;
70707;SDS011;58277;47.316;18.908;2022-09-09T01:53:03;3.50;;;2.70;;
70707;SDS011;58277;47.316;18.908;2022-09-09T01:55:32;4.53;;;2.80;;
70707;SDS011;58277;47.316;18.908;2022-09-09T02:03:37;3.60;;;2.70;;
70707;SDS011;58277;47.316;18.908;2022-09-09T02:06:27;4.65;;;2.90;;
70707;SDS011;58277;47.316;18.908;2022-09-09T02:09:05;3.75;;;2.50;;
70707;SDS011;58277;47.316;18.908;2022-09-09T02:11:29;4.43;;;2.95;;
70707;SDS011;58277;47.316;18.908;2022-09-09T02:14:08;4.68;;;2.80;;
70707;SDS011;58277;47.316;18.908;2022-09-09T02:16:38;3.65;;;2.70;;
70707;SDS011;58277;47.316;18.908;2022-09-09T02:19:08;3.92;;;2.80;;
70707;SDS011;58277;47.316;18.908;2022-09-09T02:21:52;3.90;;;2.53;;
70707;SDS011;58277;47.316;18.908;2022-09-09T02:24:17;3.60;;;2.72;;
70707;SDS011;58277;47.316;18.908;2022-09-09T02:26:48;4.13;;;2.90;;
70707;SDS011;58277;47.316;18.908;2022-09-09T02:29:16;6.50;;;3.00;;
70707;SDS011;58277;47.316;18.908;2022-09-09T02:31:45;4.13;;;3.08;;
70707;SDS011;58277;47.316;18.908;2022-09-09T02:34:14;4.35;;;3.08;;
70707;SDS011;58277;47.316;18.908;2022-09-09T02:36:40;6.10;;;3.15;;
70707;SDS011;58277;47.316;18.908;2022-09-09T02:39:06;4.90;;;3.03;;
70707;SDS011;58277;47.316;18.908;2022-09-09T02:41:35;4.47;;;3.30;;
70707;SDS011;58277;47.316;18.908;2022-09-09T02:44:00;5.65;;;3.20;;
70707;SDS011;58277;47.316;18.908;2022-09-09T02:54:24;5.32;;;3.13;;
70707;SDS011;58277;47.316;18.908;2022-09-09T02:56:56;5.13;;;3.17;;
70707;SDS011;58277;47.316;18.908;2022-09-09T02:59:31;3.97;;;2.97;;
70707;SDS011;58277;47.316;18.908;2022-09-09T03:01:54;5.20;;;3.28;;
70707;SDS011;58277;47.316;18.908;2022-09-09T03:04:17;5.30;;;3.05;;
70707;SDS011;58277;47.316;18.908;2022-09-09T03:06:40;4.13;;;3.20;;
70707;SDS011;58277;47.316;18.908;2022-09-09T03:09:11;5.75;;;3.00;;
70707;SDS011;58277;47.316;18.908;2022-09-09T03:11:34;5.53;;;3.03;;
70707;SDS011;58277;47.316;18.908;2022-09-09T03:13:57;4.55;;;3.17;;
70707;SDS011;58277;47.316;18.908;2022-09-09T03:16:22;5.63;;;3.17;;
70707;SDS011;58277;47.316;18.908;2022-09-09T03:18:48;5.85;;;3.13;;
70707;SDS011;58277;47.316;18.908;2022-09-09T03:21:11;5.32;;;3.30;;
70707;SDS011;58277;47.316;18.908;2022-09-09T03:23:35;6.35;;;3.67;;
70707;SDS011;58277;47.316;18.908;2022-09-09T03:25:58;5.05;;;3.40;;
70707;SDS011;58277;47.316;18.908;2022-09-09T03:28:30;5.15;;;3.63;;
70707;SDS011;58277;47.316;18.908;2022-09-09T03:30:57;5.03;;;3.58;;
70707;SDS011;58277;47.316;18.908;2022-09-09T03:33:28;6.10;;;3.45;;
70707;SDS011;58277;47.316;18.908;2022-09-09T03:35:51;5.57;;;3.40;;
70707;SDS011;58277;47.316;18.908;2022-09-09T03:38:15;5.03;;;3.20;;
70707;SDS011;58277;47.316;18.908;2022-09-09T03:40:38;6.25;;;3.55;;
70707;SDS011;58277;47.316;18.908;2022-09-09T03:43:02;6.45;;;3.78;;
70707;SDS011;58277;47.316;18.908;2022-09-09T03:45:25;6.43;;;4.05;;
70707;SDS011;58277;47.316;18.908;2022-09-09T03:47:48;7.13;;;3.75;;
70707;SDS011;58277;47.316;18.908;2022-09-09T03:50:11;5.45;;;3.95;;
70707;SDS011;58277;47.316;18.908;2022-09-09T03:52:40;5.53;;;3.67;;
70707;SDS011;58277;47.316;18.908;2022-09-09T03:55:10;5.93;;;3.80;;
70707;SDS011;58277;47.316;18.908;2022-09-09T03:57:33;7.85;;;3.78;;
70707;SDS011;58277;47.316;18.908;2022-09-09T04:00:01;9.40;;;3.63;;
70707;SDS011;58277;47.316;18.908;2022-09-09T04:02:37;5.80;;;3.95;;
70707;SDS011;58277;47.316;18.908;2022-09-09T04:05:01;7.40;;;3.70;;
70707;SDS011;58277;47.316;18.908;2022-09-09T04:07:24;7.47;;;4.00;;
70707;SDS011;58277;47.316;18.908;2022-09-09T04:09:47;8.23;;;4.60;;
70707;SDS011;58277;47.316;18.908;2022-09-09T04:12:10;6.15;;;4.00;;
70707;SDS011;58277;47.316;18.908;2022-09-09T04:14:35;7.50;;;4.00;;
70707;SDS011;58277;47.316;18.908;2022-09-09T04:17:00;6.40;;;4.03;;
70707;SDS011;58277;47.316;18.908;2022-09-09T04:19:23;5.85;;;3.88;;
70707;SDS011;58277;47.316;18.908;2022-09-09T04:21:46;6.93;;;3.85;;
70707;SDS011;58277;47.316;18.908;2022-09-09T04:24:11;8.75;;;3.63;;
70707;SDS011;58277;47.316;18.908;2022-09-09T04:26:34;5.30;;;3.65;;
70707;SDS011;58277;47.316;18.908;2022-09-09T04:28:59;6.28;;;3.83;;
70707;SDS011;58277;47.316;18.908;2022-09-09T04:31:22;6.85;;;3.90;;
70707;SDS011;58277;47.316;18.908;2022-09-09T04:33:51;10.02;;;4.22;;
70707;SDS011;58277;47.316;18.908;2022-09-09T04:36:16;5.80;;;4.10;;
70707;SDS011;58277;47.316;18.908;2022-09-09T04:38:41;6.25;;;3.60;;
70707;SDS011;58277;47.316;18.908;2022-09-09T04:41:03;5.57;;;3.90;;
70707;SDS011;58277;47.316;18.908;2022-09-09T04:43:28;6.05;;;3.60;;
70707;SDS011;58277;47.316;18.908;2022-09-09T04:45:53;5.65;;;3.70;;
70707;SDS011;58277;47.316;18.908;2022-09-09T04:48:19;5.50;;;3.22;;
70707;SDS011;58277;47.316;18.908;2022-09-09T04:50:44;4.75;;;3.30;;
70707;SDS011;58277;47.316;18.908;2022-09-09T04:53:16;4.88;;;3.33;;
70707;SDS011;58277;47.316;18.908;2022-09-09T04:55:39;4.47;;;3.25;;
70707;SDS011;58277;47.316;18.908;2022-09-09T04:58:03;4.90;;;3.38;;
70707;SDS011;58277;47.316;18.908;2022-09-09T05:00:28;6.03;;;4.10;;
70707;SDS011;58277;47.316;18.908;2022-09-09T05:02:51;6.63;;;3.60;;
70707;SDS011;58277;47.316;18.908;2022-09-09T05:05:14;6.82;;;3.80;;
70707;SDS011;58277;47.316;18.908;2022-09-09T05:07:37;5.63;;;3.67;;
70707;SDS011;58277;47.316;18.908;2022-09-09T05:10:06;5.00;;;3.28;;
70707;SDS011;58277;47.316;18.908;2022-09-09T05:12:29;6.13;;;3.30;;
70707;SDS011;58277;47.316;18.908;2022-09-09T05:14:53;5.40;;;3.50;;
70707;SDS011;58277;47.316;18.908;2022-09-09T05:17:16;5.22;;;3.45;;
70707;SDS011;58277;47.316;18.908;2022-09-09T05:19:40;5.20;;;3.47;;
70707;SDS011;58277;47.316;18.908;2022-09-09T05:22:03;5.82;;;3.15;;
70707;SDS011;58277;47.316;18.908;2022-09-09T05:24:34;4.80;;;3.00;;
70707;SDS011;58277;47.316;18.908;2022-09-09T05:26:57;6.03;;;3.45;;
70707;SDS011;58277;47.316;18.908;2022-09-09T05:29:22;7.68;;;3.38;;
70707;SDS011;58277;47.316;18.908;2022-09-09T05:31:45;4.25;;;3.00;;
70707;SDS011;58277;47.316;18.908;2022-09-09T05:34:13;4.10;;;3.00;;
70707;SDS011;58277;47.316;18.908;2022-09-09T05:36:36;3.83;;;3.20;;
70707;SDS011;58277;47.316;18.908;2022-09-09T05:38:58;6.50;;;3.35;;
70707;SDS011;58277;47.316;18.908;2022-09-09T05:41:22;5.55;;;3.13;;
70707;SDS011;58277;47.316;18.908;2022-09-09T05:43:48;4.30;;;3.05;;
70707;SDS011;58277;47.316;18.908;2022-09-09T05:46:13;3.70;;;2.60;;
70707;SDS011;58277;47.316;18.908;2022-09-09T05:48:43;6.53;;;2.80;;
70707;SDS011;58277;47.316;18.908;2022-09-09T05:51:15;4.20;;;2.70;;
70707;SDS011;58277;47.316;18.908;2022-09-09T05:53:40;6.00;;;2.97;;
70707;SDS011;58277;47.316;18.908;2022-09-09T05:56:03;4.72;;;2.80;;
70707;SDS011;58277;47.316;18.908;2022-09-09T05:58:30;3.85;;;2.63;;
70707;SDS011;58277;47.316;18.908;2022-09-09T06:03:28;3.63;;;2.70;;
70707;SDS011;58277;47.316;18.908;2022-09-09T06:06:01;2.90;;;2.40;;
70707;SDS011;58277;47.316;18.908;2022-09-09T06:08:27;3.35;;;2.45;;
70707;SDS011;58277;47.316;18.908;2022-09-09T06:10:51;4.38;;;2.80;;
70707;SDS011;58277;47.316;18.908;2022-09-09T06:13:14;4.53;;;2.78;;
70707;SDS011;58277;47.316;18.908;2022-09-09T06:15:36;3.85;;;2.60;;
70707;SDS011;58277;47.316;18.908;2022-09-09T06:17:59;4.07;;;2.40;;
70707;SDS011;58277;47.316;18.908;2022-09-09T06:20:22;3.40;;;2.70;;
70707;SDS011;58277;47.316;18.908;2022-09-09T06:22:45;3.83;;;2.50;;
70707;SDS011;58277;47.316;18.908;2022-09-09T06:25:08;4.35;;;2.50;;
70707;SDS011;58277;47.316;18.908;2022-09-09T06:27:33;5.47;;;2.78;;
70707;SDS011;58277;47.316;18.908;2022-09-09T06:29:56;3.53;;;2.72;;
70707;SDS011;58277;47.316;18.908;2022-09-09T06:32:19;4.07;;;2.90;;
70707;SDS011;58277;47.316;18.908;2022-09-09T06:34:41;3.55;;;2.60;;
70707;SDS011;58277;47.316;18.908;2022-09-09T06:37:04;4.03;;;2.63;;
70707;SDS011;58277;47.316;18.908;2022-09-09T06:39:42;3.97;;;2.60;;
70707;SDS011;58277;47.316;18.908;2022-09-09T06:42:05;5.03;;;2.75;;
70707;SDS011;58277;47.316;18.908;2022-09-09T06:44:41;8.20;;;3.17;;
70707;SDS011;58277;47.316;18.908;2022-09-09T06:47:08;6.53;;;2.45;;
70707;SDS011;58277;47.316;18.908;2022-09-09T06:49:31;4.22;;;2.88;;
70707;SDS011;58277;47.316;18.908;2022-09-09T06:51:55;4.80;;;2.70;;
70707;SDS011;58277;47.316;18.908;2022-09-09T06:54:18;5.60;;;2.90;;
70707;SDS011;58277;47.316;18.908;2022-09-09T06:56:42;6.78;;;2.60;;
70707;SDS011;58277;47.316;18.908;2022-09-09T06:59:11;3.80;;;2.38;;
70707;SDS011;58277;47.316;18.908;2022-09-09T07:01:36;5.88;;;2.90;;
70707;SDS011;58277;47.316;18.908;2022-09-09T07:04:04;3.78;;;2.28;;
70707;SDS011;58277;47.316;18.908;2022-09-09T07:06:32;3.90;;;2.50;;
70707;SDS011;58277;47.316;18.908;2022-09-09T07:08:58;5.82;;;3.80;;
70707;SDS011;58277;47.316;18.908;2022-09-09T07:11:25;5.25;;;3.50;;
70707;SDS011;58277;47.316;18.908;2022-09-09T07:13:49;3.70;;;2.50;;
70707;SDS011;58277;47.316;18.908;2022-09-09T07:16:14;3.25;;;2.38;;
70707;SDS011;58277;47.316;18.908;2022-09-09T07:18:40;3.47;;;2.40;;
70707;SDS011;58277;47.316;18.908;2022-09-09T07:21:04;3.42;;;2.63;;
70707;SDS011;58277;47.316;18.908;2022-09-09T07:23:29;4.13;;;2.38;;
70707;SDS011;58277;47.316;18.908;2022-09-09T07:25:58;4.07;;;2.80;;
70707;SDS011;58277;47.316;18.908;2022-09-09T07:28:24;3.55;;;2.42;;
70707;SDS011;58277;47.316;18.908;2022-09-09T07:30:57;3.65;;;2.45;;
70707;SDS011;58277;47.316;18.908;2022-09-09T07:33:22;3.38;;;2.42;;
70707;SDS011;58277;47.316;18.908;2022-09-09T07:35:47;4.47;;;2.80;;
70707;SDS011;58277;47.316;18.908;2022-09-09T07:38:10;5.07;;;2.72;;
70707;SDS011;58277;47.316;18.908;2022-09-09T07:40:33;5.38;;;2.38;;
70707;SDS011;58277;47.316;18.908;2022-09-09T07:42:56;3.75;;;2.38;;
70707;SDS011;58277;47.316;18.908;2022-09-09T07:45:20;5.43;;;2.63;;
70707;SDS011;58277;47.316;18.908;2022-09-09T07:47:42;4.95;;;2.40;;
70707;SDS011;58277;47.316;18.908;2022-09-09T07:50:06;5.32;;;2.40;;
70707;SDS011;58277;47.316;18.908;2022-09-09T07:52:30;6.47;;;2.55;;
70707;SDS011;58277;47.316;18.908;2022-09-09T07:54:55;5.97;;;3.60;;
70707;SDS011;58277;47.316;18.908;2022-09-09T07:57:19;6.38;;;2.63;;
70707;SDS011;58277;47.316;18.908;2022-09-09T07:59:43;5.05;;;3.00;;
70707;SDS011;58277;47.316;18.908;2022-09-09T08:02:05;8.40;;;3.03;;
70707;SDS011;58277;47.316;18.908;2022-09-09T08:04:30;5.95;;;3.13;;
70707;SDS011;58277;47.316;18.908;2022-09-09T08:06:56;5.30;;;3.00;;
70707;SDS011;58277;47.316;18.908;2022-09-09T08:09:21;5.60;;;2.47;;
70707;SDS011;58277;47.316;18.908;2022-09-09T08:11:47;4.25;;;2.65;;
70707;SDS011;58277;47.316;18.908;2022-09-09T08:14:11;6.63;;;2.75;;
70707;SDS011;58277;47.316;18.908;2022-09-09T08:16:36;4.55;;;2.65;;
70707;SDS011;58277;47.316;18.908;2022-09-09T08:19:04;3.83;;;2.50;;
70707;SDS011;58277;47.316;18.908;2022-09-09T08:21:30;3.65;;;2.65;;
70707;SDS011;58277;47.316;18.908;2022-09-09T08:23:54;3.70;;;2.47;;
70707;SDS011;58277;47.316;18.908;2022-09-09T08:26:23;4.20;;;2.65;;
70707;SDS011;58277;47.316;18.908;2022-09-09T08:28:48;3.92;;;2.25;;
70707;SDS011;58277;47.316;18.908;2022-09-09T08:31:16;3.83;;;2.58;;
70707;SDS011;58277;47.316;18.908;2022-09-09T08:33:41;3.80;;;2.30;;
70707;SDS011;58277;47.316;18.908;2022-09-09T08:36:05;3.78;;;2.17;;
70707;SDS011;58277;47.316;18.908;2022-09-09T08:38:30;4.88;;;2.50;;
70707;SDS011;58277;47.316;18.908;2022-09-09T08:40:52;2.45;;;2.00;;
70707;SDS011;58277;47.316;18.908;2022-09-09T08:43:23;7.05;;;2.47;;
70707;SDS011;58277;47.316;18.908;2022-09-09T08:45:51;3.72;;;2.40;;
70707;SDS011;58277;47.316;18.908;2022-09-09T08:48:34;3.35;;;2.30;;
70707;SDS011;58277;47.316;18.908;2022-09-09T08:51:06;4.40;;;2.22;;
70707;SDS011;58277;47.316;18.908;2022-09-09T08:53:36;3.92;;;2.30;;
70707;SDS011;58277;47.316;18.908;2022-09-09T08:56:09;4.15;;;1.90;;
70707;SDS011;58277;47.316;18.908;2022-09-09T08:58:48;2.83;;;2.10;;
70707;SDS011;58277;47.316;18.908;2022-09-09T09:04:27;3.95;;;1.95;;
70707;SDS011;58277;47.316;18.908;2022-09-09T09:12:51;2.00;;;1.70;;
70707;SDS011;58277;47.316;18.908;2022-09-09T09:15:23;4.22;;;2.20;;
70707;SDS011;58277;47.316;18.908;2022-09-09T09:17:53;2.47;;;1.85;;
70707;SDS011;58277;47.316;18.908;2022-09-09T09:20:18;4.72;;;1.90;;
70707;SDS011;58277;47.316;18.908;2022-09-09T09:22:52;2.53;;;1.90;;
70707;SDS011;58277;47.316;18.908;2022-09-09T09:25:21;2.10;;;1.70;;
70707;SDS011;58277;47.316;18.908;2022-09-09T09:27:49;4.82;;;1.77;;
70707;SDS011;58277;47.316;18.908;2022-09-09T09:30:36;2.70;;;1.83;;
70707;SDS011;58277;47.316;18.908;2022-09-09T09:35:34;3.60;;;1.95;;
70707;SDS011;58277;47.316;18.908;2022-09-09T09:38:20;3.13;;;2.27;;
70707;SDS011;58277;47.316;18.908;2022-09-09T09:41:08;2.83;;;1.80;;
70707;SDS011;58277;47.316;18.908;2022-09-09T09:46:19;2.65;;;1.42;;
70707;SDS011;58277;47.316;18.908;2022-09-09T09:48:56;3.20;;;1.50;;
70707;SDS011;58277;47.316;18.908;2022-09-09T09:51:29;4.03;;;1.50;;
70707;SDS011;58277;47.316;18.908;2022-09-09T09:54:08;2.30;;;1.33;;
70707;SDS011;58277;47.316;18.908;2022-09-09T09:56:36;2.40;;;1.73;;
70707;SDS011;58277;47.316;18.908;2022-09-09T09:59:01;2.63;;;1.70;;
70707;SDS011;58277;47.316;18.908;2022-09-09T10:01:39;2.88;;;1.38;;
70707;SDS011;58277;47.316;18.908;2022-09-09T10:04:19;2.13;;;1.50;;
70707;SDS011;58277;47.316;18.908;2022-09-09T10:06:49;4.07;;;1.50;;
70707;SDS011;58277;47.316;18.908;2022-09-09T10:22:47;3.83;;;1.38;;
70707;SDS011;58277;47.316;18.908;2022-09-09T10:25:27;3.47;;;1.50;;
70707;SDS011;58277;47.316;18.908;2022-09-09T10:33:30;3.55;;;1.20;;
70707;SDS011;58277;47.316;18.908;2022-09-09T10:36:06;1.83;;;1.30;;
70707;SDS011;58277;47.316;18.908;2022-09-09T10:41:20;2.15;;;1.50;;
70707;SDS011;58277;47.316;18.908;2022-09-09T10:44:12;2.53;;;1.27;;
70707;SDS011;58277;47.316;18.908;2022-09-09T10:46:56;1.80;;;0.88;;
70707;SDS011;58277;47.316;18.908;2022-09-09T10:55:40;2.42;;;1.27;;
70707;SDS011;58277;47.316;18.908;2022-09-09T10:58:09;3.43;;;1.20;;
70707;SDS011;58277;47.316;18.908;2022-09-09T11:03:03;1.15;;;0.80;;
70707;SDS011;58277;47.316;18.908;2022-09-09T11:05:42;1.10;;;0.80;;
70707;SDS011;58277;47.316;18.908;2022-09-09T11:08:10;1.10;;;0.80;;
70707;SDS011;58277;47.316;18.908;2022-09-09T11:10:39;1.67;;;1.00;;
70707;SDS011;58277;47.316;18.908;2022-09-09T11:16:23;1.05;;;0.80;;
70707;SDS011;58277;47.316;18.908;2022-09-09T11:18:43;2.15;;;0.80;;
70707;SDS011;58277;47.316;18.908;2022-09-09T11:21:12;1.75;;;0.80;;
70707;SDS011;58277;47.316;18.908;2022-09-09T11:23:47;2.37;;;0.80;;
70707;SDS011;58277;47.316;18.908;2022-09-09T11:26:18;2.17;;;0.70;;
70707;SDS011;58277;47.316;18.908;2022-09-09T11:39:49;3.40;;;1.25;;
70707;SDS011;58277;47.316;18.908;2022-09-09T11:44:36;2.75;;;1.10;;
70707;SDS011;58277;47.316;18.908;2022-09-09T11:47:15;2.75;;;0.90;;
70707;SDS011;58277;47.316;18.908;2022-09-09T11:52:41;4.47;;;1.13;;
70707;SDS011;58277;47.316;18.908;2022-09-09T11:55:11;2.03;;;0.70;;
70707;SDS011;58277;47.316;18.908;2022-09-09T11:57:46;1.15;;;0.75;;
70707;SDS011;58277;47.316;18.908;2022-09-09T12:00:27;1.83;;;0.70;;
70707;SDS011;58277;47.316;18.908;2022-09-09T12:02:53;4.37;;;0.80;;
70707;SDS011;58277;47.316;18.908;2022-09-09T12:05:16;2.67;;;0.63;;
70707;SDS011;58277;47.316;18.908;2022-09-09T12:07:45;1.42;;;0.90;;
70707;SDS011;58277;47.316;18.908;2022-09-09T12:10:20;0.85;;;0.50;;
70707;SDS011;58277;47.316;18.908;2022-09-09T12:13:18;3.22;;;0.70;;
70707;SDS011;58277;47.316;18.908;2022-09-09T12:18:14;1.92;;;0.80;;
70707;SDS011;58277;47.316;18.908;2022-09-09T12:21:07;1.23;;;0.77;;
70707;SDS011;58277;47.316;18.908;2022-09-09T12:23:31;2.08;;;0.90;;
70707;SDS011;58277;47.316;18.908;2022-09-09T12:31:38;1.20;;;0.68;;
70707;SDS011;58277;47.316;18.908;2022-09-09T12:36:46;2.03;;;0.60;;
70707;SDS011;58277;47.316;18.908;2022-09-09T12:39:19;1.30;;;0.60;;
70707;SDS011;58277;47.316;18.908;2022-09-09T12:41:51;2.40;;;0.70;;
70707;SDS011;58277;47.316;18.908;2022-09-09T12:44:19;1.83;;;0.68;;
70707;SDS011;58277;47.316;18.908;2022-09-09T12:46:43;1.10;;;0.73;;
70707;SDS011;58277;47.316;18.908;2022-09-09T12:52:04;2.08;;;0.70;;
70707;SDS011;58277;47.316;18.908;2022-09-09T12:54:35;1.50;;;1.00;;
70707;SDS011;58277;47.316;18.908;2022-09-09T12:56:59;1.67;;;0.60;;
70707;SDS011;58277;47.316;18.908;2022-09-09T12:59:23;1.38;;;0.70;;
70707;SDS011;58277;47.316;18.908;2022-09-09T13:01:54;1.00;;;0.70;;
70707;SDS011;58277;47.316;18.908;2022-09-09T13:04:21;1.90;;;0.75;;
70707;SDS011;58277;47.316;18.908;2022-09-09T13:06:46;1.50;;;0.70;;
70707;SDS011;58277;47.316;18.908;2022-09-09T13:09:09;1.10;;;0.60;;
70707;SDS011;58277;47.316;18.908;2022-09-09T13:11:36;1.10;;;0.80;;
70707;SDS011;58277;47.316;18.908;2022-09-09T13:14:02;1.40;;;0.90;;
70707;SDS011;58277;47.316;18.908;2022-09-09T13:16:32;3.63;;;0.80;;
70707;SDS011;58277;47.316;18.908;2022-09-09T13:19:08;1.17;;;0.70;;
70707;SDS011;58277;47.316;18.908;2022-09-09T13:21:40;1.55;;;1.00;;
70707;SDS011;58277;47.316;18.908;2022-09-09T13:24:03;1.30;;;0.98;;
70707;SDS011;58277;47.316;18.908;2022-09-09T13:26:30;2.28;;;0.80;;
70707;SDS011;58277;47.316;18.908;2022-09-09T13:28:53;3.00;;;1.00;;
70707;SDS011;58277;47.316;18.908;2022-09-09T13:31:24;1.90;;;1.07;;
70707;SDS011;58277;47.316;18.908;2022-09-09T13:33:51;2.17;;;1.00;;
70707;SDS011;58277;47.316;18.908;2022-09-09T13:36:15;1.70;;;1.20;;
70707;SDS011;58277;47.316;18.908;2022-09-09T13:38:39;3.05;;;1.00;;
70707;SDS011;58277;47.316;18.908;2022-09-09T13:41:09;2.25;;;1.27;;
70707;SDS011;58277;47.316;18.908;2022-09-09T13:46:25;1.50;;;1.15;;
70707;SDS011;58277;47.316;18.908;2022-09-09T13:48:59;1.60;;;1.30;;
70707;SDS011;58277;47.316;18.908;2022-09-09T13:53:57;1.63;;;1.27;;
70707;SDS011;58277;47.316;18.908;2022-09-09T13:56:21;1.30;;;1.10;;
70707;SDS011;58277;47.316;18.908;2022-09-09T13:58:43;1.48;;;1.02;;
70707;SDS011;58277;47.316;18.908;2022-09-09T14:01:06;2.72;;;1.23;;
70707;SDS011;58277;47.316;18.908;2022-09-09T14:03:29;3.28;;;1.13;;
70707;SDS011;58277;47.316;18.908;2022-09-09T14:05:53;2.65;;;1.15;;
70707;SDS011;58277;47.316;18.908;2022-09-09T14:08:20;2.50;;;1.70;;
70707;SDS011;58277;47.316;18.908;2022-09-09T14:10:45;3.35;;;1.10;;
70707;SDS011;58277;47.316;18.908;2022-09-09T14:13:08;1.80;;;1.25;;
70707;SDS011;58277;47.316;18.908;2022-09-09T14:15:31;3.03;;;1.60;;
70707;SDS011;58277;47.316;18.908;2022-09-09T14:17:53;1.40;;;1.00;;
70707;SDS011;58277;47.316;18.908;2022-09-09T14:20:16;3.23;;;1.10;;
70707;SDS011;58277;47.316;18.908;2022-09-09T14:22:40;2.42;;;1.10;;
70707;SDS011;58277;47.316;18.908;2022-09-09T14:25:03;1.65;;;1.05;;
70707;SDS011;58277;47.316;18.908;2022-09-09T14:27:26;1.63;;;1.20;;
70707;SDS011;58277;47.316;18.908;2022-09-09T14:29:49;1.27;;;1.10;;
70707;SDS011;58277;47.316;18.908;2022-09-09T14:32:12;1.70;;;1.20;;
70707;SDS011;58277;47.316;18.908;2022-09-09T14:34:34;1.80;;;1.17;;
70707;SDS011;58277;47.316;18.908;2022-09-09T14:36:57;1.88;;;1.30;;
70707;SDS011;58277;47.316;18.908;2022-09-09T14:39:20;1.63;;;1.10;;
70707;SDS011;58277;47.316;18.908;2022-09-09T14:41:43;3.42;;;1.30;;
70707;SDS011;58277;47.316;18.908;2022-09-09T14:44:05;2.30;;;1.00;;
70707;SDS011;58277;47.316;18.908;2022-09-09T14:46:28;1.75;;;1.25;;
70707;SDS011;58277;47.316;18.908;2022-09-09T14:48:51;4.32;;;1.27;;
70707;SDS011;58277;47.316;18.908;2022-09-09T14:51:22;3.03;;;1.25;;
70707;SDS011;58277;47.316;18.908;2022-09-09T14:53:46;1.45;;;1.15;;
70707;SDS011;58277;47.316;18.908;2022-09-09T14:56:10;1.40;;;1.00;;
70707;SDS011;58277;47.316;18.908;2022-09-09T14:58:34;3.42;;;1.20;;
70707;SDS011;58277;47.316;18.908;2022-09-09T15:01:04;1.40;;;1.10;;
70707;SDS011;58277;47.316;18.908;2022-09-09T15:03:28;2.50;;;1.17;;
70707;SDS011;58277;47.316;18.908;2022-09-09T15:05:50;2.22;;;1.20;;
70707;SDS011;58277;47.316;18.908;2022-09-09T15:08:15;1.77;;;1.20;;
70707;SDS011;58277;47.316;18.908;2022-09-09T15:10:38;3.85;;;1.17;;
70707;SDS011;58277;47.316;18.908;2022-09-09T15:13:01;4.05;;;1.10;;
70707;SDS011;58277;47.316;18.908;2022-09-09T15:15:23;1.55;;;0.90;;
70707;SDS011;58277;47.316;18.908;2022-09-09T15:17:46;2.30;;;1.30;;
70707;SDS011;58277;47.316;18.908;2022-09-09T15:20:09;1.57;;;1.00;;
70707;SDS011;58277;47.316;18.908;2022-09-09T15:22:32;2.05;;;1.00;;
70707;SDS011;58277;47.316;18.908;2022-09-09T15:24:55;2.28;;;0.98;;
70707;SDS011;58277;47.316;18.908;2022-09-09T15:27:18;1.83;;;1.05;;
70707;SDS011;58277;47.316;18.908;2022-09-09T15:29:41;2.13;;;1.15;;
70707;SDS011;58277;47.316;18.908;2022-09-09T15:32:04;1.40;;;0.90;;
70707;SDS011;58277;47.316;18.908;2022-09-09T15:34:26;1.50;;;1.20;;
70707;SDS011;58277;47.316;18.908;2022-09-09T15:36:49;2.65;;;1.00;;
70707;SDS011;58277;47.316;18.908;2022-09-09T15:39:13;1.42;;;1.30;;
70707;SDS011;58277;47.316;18.908;2022-09-09T15:41:40;1.95;;;1.10;;
70707;SDS011;58277;47.316;18.908;2022-09-09T15:44:02;1.30;;;1.10;;
70707;SDS011;58277;47.316;18.908;2022-09-09T15:46:44;1.85;;;1.20;;
70707;SDS011;58277;47.316;18.908;2022-09-09T15:49:11;2.97;;;1.40;;
70707;SDS011;58277;47.316;18.908;2022-09-09T15:51:36;2.28;;;1.10;;
70707;SDS011;58277;47.316;18.908;2022-09-09T15:54:05;2.38;;;1.20;;
70707;SDS011;58277;47.316;18.908;2022-09-09T15:56:29;3.30;;;1.20;;
70707;SDS011;58277;47.316;18.908;2022-09-09T15:58:55;1.70;;;1.20;;
70707;SDS011;58277;47.316;18.908;2022-09-09T16:01:18;1.55;;;1.27;;
70707;SDS011;58277;47.316;18.908;2022-09-09T16:03:41;2.78;;;1.23;;
70707;SDS011;58277;47.316;18.908;2022-09-09T16:06:08;2.80;;;1.15;;
70707;SDS011;58277;47.316;18.908;2022-09-09T16:08:32;1.90;;;1.13;;
70707;SDS011;58277;47.316;18.908;2022-09-09T16:11:09;3.05;;;1.23;;
70707;SDS011;58277;47.316;18.908;2022-09-09T16:13:35;3.83;;;1.40;;
70707;SDS011;58277;47.316;18.908;2022-09-09T16:15:59;3.83;;;1.20;;
70707;SDS011;58277;47.316;18.908;2022-09-09T16:18:21;2.83;;;1.30;;
70707;SDS011;58277;47.316;18.908;2022-09-09T16:20:52;2.30;;;1.20;;
70707;SDS011;58277;47.316;18.908;2022-09-09T16:23:16;3.42;;;1.23;;
70707;SDS011;58277;47.316;18.908;2022-09-09T16:25:39;3.00;;;1.35;;
70707;SDS011;58277;47.316;18.908;2022-09-09T16:28:02;2.90;;;1.17;;
70707;SDS011;58277;47.316;18.908;2022-09-09T16:30:24;2.85;;;1.23;;
70707;SDS011;58277;47.316;18.908;2022-09-09T16:32:47;1.90;;;1.27;;
70707;SDS011;58277;47.316;18.908;2022-09-09T16:35:09;2.17;;;1.27;;
70707;SDS011;58277;47.316;18.908;2022-09-09T16:37:32;3.28;;;1.30;;
70707;SDS011;58277;47.316;18.908;2022-09-09T16:39:56;1.80;;;1.05;;
70707;SDS011;58277;47.316;18.908;2022-09-09T16:42:18;3.65;;;1.80;;
70707;SDS011;58277;47.316;18.908;2022-09-09T16:44:45;4.50;;;1.60;;
70707;SDS011;58277;47.316;18.908;2022-09-09T16:47:07;4.20;;;2.22;;
70707;SDS011;58277;47.316;18.908;2022-09-09T16:49:30;3.83;;;2.25;;
70707;SDS011;58277;47.316;18.908;2022-09-09T16:51:53;3.58;;;1.33;;
70707;SDS011;58277;47.316;18.908;2022-09-09T16:54:16;2.35;;;1.25;;
70707;SDS011;58277;47.316;18.908;2022-09-09T16:56:41;3.13;;;1.30;;
70707;SDS011;58277;47.316;18.908;2022-09-09T16:59:06;3.05;;;1.20;;